sensor_id;sensor_type;location;lat;lon;timestamp;pressure;altitude;pressure_sealevel;temperature;humidity
15674;BME280;7937;48.090;16.212;2022-12-10T00:01:17;96333.78;;;1.33;100.00
15674;BME280;7937;48.090;16.212;2022-12-10T00:04:21;96335.44;;;1.34;100.00
15674;BME280;7937;48.090;16.212;2022-12-10T00:07:23;96340.66;;;1.34;100.00
15674;BME280;7937;48.090;16.212;2022-12-10T00:10:25;96333.78;;;1.33;100.00
15674;BME280;7937;48.090;16.212;2022-12-10T00:13:27;96331.19;;;1.33;100.00
15674;BME280;7937;48.090;16.212;2022-12-10T00:16:30;96339.81;;;1.33;100.00
15674;BME280;7937;48.090;16.212;2022-12-10T00:19:36;96335.56;;;1.32;100.00
15674;BME280;7937;48.090;16.212;2022-12-10T00:22:38;96348.53;;;1.32;100.00
15674;BME280;7937;48.090;16.212;2022-12-10T00:25:40;96342.41;;;1.33;100.00
15674;BME280;7937;48.090;16.212;2022-12-10T00:28:44;96344.91;;;1.35;100.00
15674;BME280;7937;48.090;16.212;2022-12-10T00:31:46;96358.00;;;1.33;100.00
15674;BME280;7937;48.090;16.212;2022-12-10T00:34:48;96352.81;;;1.33;100.00
15674;BME280;7937;48.090;16.212;2022-12-10T00:37:50;96361.53;;;1.32;100.00
15674;BME280;7937;48.090;16.212;2022-12-10T00:40:52;96360.00;;;1.30;100.00
15674;BME280;7937;48.090;16.212;2022-12-10T00:43:54;96363.53;;;1.29;100.00
15674;BME280;7937;48.090;16.212;2022-12-10T00:46:56;96371.19;;;1.30;100.00
15674;BME280;7937;48.090;16.212;2022-12-10T00:49:59;96385.84;;;1.31;100.00
15674;BME280;7937;48.090;16.212;2022-12-10T00:53:01;96388.44;;;1.31;100.00
15674;BME280;7937;48.090;16.212;2022-12-10T00:56:04;96382.22;;;1.34;100.00
15674;BME280;7937;48.090;16.212;2022-12-10T00:59:06;96375.38;;;1.33;99.60
15674;BME280;7937;48.090;16.212;2022-12-10T01:02:08;96388.16;;;1.36;99.92
15674;BME280;7937;48.090;16.212;2022-12-10T01:05:11;96380.47;;;1.34;99.13
15674;BME280;7937;48.090;16.212;2022-12-10T01:08:13;96383.91;;;1.35;99.27
15674;BME280;7937;48.090;16.212;2022-12-10T01:11:18;96384.56;;;1.38;99.52
15674;BME280;7937;48.090;16.212;2022-12-10T01:14:26;96381.13;;;1.38;99.65
15674;BME280;7937;48.090;16.212;2022-12-10T01:17:29;96376.94;;;1.35;99.38
15674;BME280;7937;48.090;16.212;2022-12-10T01:20:34;96373.41;;;1.36;99.08
15674;BME280;7937;48.090;16.212;2022-12-10T01:23:40;96371.66;;;1.37;98.92
15674;BME280;7937;48.090;16.212;2022-12-10T01:26:42;96368.22;;;1.36;99.32
15674;BME280;7937;48.090;16.212;2022-12-10T01:29:44;96368.31;;;1.35;99.53
15674;BME280;7937;48.090;16.212;2022-12-10T01:32:46;96377.78;;;1.36;99.09
15674;BME280;7937;48.090;16.212;2022-12-10T01:35:48;96368.22;;;1.36;99.42
15674;BME280;7937;48.090;16.212;2022-12-10T01:38:51;96371.56;;;1.38;99.14
15674;BME280;7937;48.090;16.212;2022-12-10T01:41:56;96352.44;;;1.39;98.76
15674;BME280;7937;48.090;16.212;2022-12-10T01:45:06;96352.63;;;1.36;98.16
15674;BME280;7937;48.090;16.212;2022-12-10T01:48:08;96352.53;;;1.38;98.19
15674;BME280;7937;48.090;16.212;2022-12-10T01:51:11;96378.41;;;1.39;97.65
15674;BME280;7937;48.090;16.212;2022-12-10T01:54:18;96394.72;;;1.41;97.79
15674;BME280;7937;48.090;16.212;2022-12-10T01:57:26;96387.75;;;1.42;98.00
15674;BME280;7937;48.090;16.212;2022-12-10T02:00:31;96397.13;;;1.44;98.62
15674;BME280;7937;48.090;16.212;2022-12-10T02:17:19;96405.03;;;1.43;99.09
15674;BME280;7937;48.090;16.212;2022-12-10T02:20:35;96390.47;;;1.40;99.33
15674;BME280;7937;48.090;16.212;2022-12-10T02:23:46;96400.03;;;1.40;98.69
15674;BME280;7937;48.090;16.212;2022-12-10T02:27:04;96407.63;;;1.43;98.22
15674;BME280;7937;48.090;16.212;2022-12-10T02:30:08;96403.25;;;1.43;97.60
15674;BME280;7937;48.090;16.212;2022-12-10T02:33:12;96406.78;;;1.42;97.71
15674;BME280;7937;48.090;16.212;2022-12-10T02:36:16;96408.56;;;1.42;97.42
15674;BME280;7937;48.090;16.212;2022-12-10T02:39:27;96413.84;;;1.40;97.20
15674;BME280;7937;48.090;16.212;2022-12-10T02:42:38;96415.53;;;1.41;96.98
15674;BME280;7937;48.090;16.212;2022-12-10T02:45:42;96401.91;;;1.38;96.91
15674;BME280;7937;48.090;16.212;2022-12-10T02:48:47;96411.47;;;1.37;96.87
15674;BME280;7937;48.090;16.212;2022-12-10T02:51:52;96412.31;;;1.38;96.22
15674;BME280;7937;48.090;16.212;2022-12-10T02:54:55;96413.13;;;1.38;96.44
15674;BME280;7937;48.090;16.212;2022-12-10T02:58:13;96417.41;;;1.39;96.44
15674;BME280;7937;48.090;16.212;2022-12-10T03:01:38;96426.84;;;1.40;96.19
15674;BME280;7937;48.090;16.212;2022-12-10T03:04:59;96418.34;;;1.38;95.98
15674;BME280;7937;48.090;16.212;2022-12-10T03:08:17;96420.94;;;1.38;96.01
15674;BME280;7937;48.090;16.212;2022-12-10T03:11:22;96410.53;;;1.38;95.92
15674;BME280;7937;48.090;16.212;2022-12-10T03:14:29;96418.34;;;1.38;95.80
15674;BME280;7937;48.090;16.212;2022-12-10T03:17:32;96409.72;;;1.38;95.32
15674;BME280;7937;48.090;16.212;2022-12-10T03:20:40;96414.91;;;1.38;95.96
15674;BME280;7937;48.090;16.212;2022-12-10T03:23:46;96414.06;;;1.37;95.49
15674;BME280;7937;48.090;16.212;2022-12-10T03:26:50;96411.38;;;1.39;95.54
15674;BME280;7937;48.090;16.212;2022-12-10T03:29:56;96420.00;;;1.39;95.59
15674;BME280;7937;48.090;16.212;2022-12-10T03:33:00;96420.81;;;1.40;95.83
15674;BME280;7937;48.090;16.212;2022-12-10T03:36:04;96425.91;;;1.41;95.90
15674;BME280;7937;48.090;16.212;2022-12-10T03:39:07;96420.94;;;1.38;95.83
15674;BME280;7937;48.090;16.212;2022-12-10T03:42:10;96428.59;;;1.40;96.12
15674;BME280;7937;48.090;16.212;2022-12-10T03:45:12;96445.03;;;1.40;95.80
15674;BME280;7937;48.090;16.212;2022-12-10T03:48:14;96445.03;;;1.40;96.29
15674;BME280;7937;48.090;16.212;2022-12-10T03:51:16;96453.59;;;1.42;96.03
15674;BME280;7937;48.090;16.212;2022-12-10T03:54:18;96460.44;;;1.43;96.25
15674;BME280;7937;48.090;16.212;2022-12-10T03:57:20;96469.91;;;1.44;95.96
15674;BME280;7937;48.090;16.212;2022-12-10T04:00:22;96456.94;;;1.44;95.94
15674;BME280;7937;48.090;16.212;2022-12-10T04:03:24;96452.66;;;1.43;95.58
15674;BME280;7937;48.090;16.212;2022-12-10T04:06:26;96449.22;;;1.43;95.41
15674;BME280;7937;48.090;16.212;2022-12-10T04:09:28;96456.41;;;1.39;95.73
15674;BME280;7937;48.090;16.212;2022-12-10T04:12:30;96456.28;;;1.41;95.86
15674;BME280;7937;48.090;16.212;2022-12-10T04:15:32;96477.91;;;1.41;96.05
15674;BME280;7937;48.090;16.212;2022-12-10T04:19:09;96477.91;;;1.41;96.24
15674;BME280;7937;48.090;16.212;2022-12-10T04:22:11;96483.09;;;1.41;96.10
15674;BME280;7937;48.090;16.212;2022-12-10T04:25:32;96474.59;;;1.39;96.29
15674;BME280;7937;48.090;16.212;2022-12-10T04:28:53;96477.06;;;1.41;96.61
15674;BME280;7937;48.090;16.212;2022-12-10T04:31:56;96480.50;;;1.41;96.52
15674;BME280;7937;48.090;16.212;2022-12-10T04:34:58;96481.34;;;1.42;96.66
15674;BME280;7937;48.090;16.212;2022-12-10T04:38:00;96478.66;;;1.43;96.81
15674;BME280;7937;48.090;16.212;2022-12-10T04:41:02;96470.84;;;1.43;96.66
15674;BME280;7937;48.090;16.212;2022-12-10T04:44:18;96462.22;;;1.43;96.31
15674;BME280;7937;48.090;16.212;2022-12-10T04:47:20;96463.13;;;1.42;96.65
15674;BME280;7937;48.090;16.212;2022-12-10T04:50:22;96455.66;;;1.37;96.16
15674;BME280;7937;48.090;16.212;2022-12-10T04:53:24;96448.88;;;1.35;96.45
15674;BME280;7937;48.090;16.212;2022-12-10T04:56:26;96454.16;;;1.33;95.77
15674;BME280;7937;48.090;16.212;2022-12-10T04:59:28;96445.63;;;1.31;95.77
15674;BME280;7937;48.090;16.212;2022-12-10T05:02:30;96451.66;;;1.32;95.45
15674;BME280;7937;48.090;16.212;2022-12-10T05:05:36;96445.63;;;1.31;95.37
15674;BME280;7937;48.090;16.212;2022-12-10T05:08:39;96448.22;;;1.31;95.41
15674;BME280;7937;48.090;16.212;2022-12-10T05:11:42;96450.13;;;1.29;95.64
15674;BME280;7937;48.090;16.212;2022-12-10T05:14:46;96444.91;;;1.29;96.03
15674;BME280;7937;48.090;16.212;2022-12-10T05:17:47;96449.06;;;1.32;95.99
15674;BME280;7937;48.090;16.212;2022-12-10T05:20:50;96437.97;;;1.30;96.24
15674;BME280;7937;48.090;16.212;2022-12-10T05:23:52;96444.78;;;1.31;96.08
15674;BME280;7937;48.090;16.212;2022-12-10T05:26:55;96450.81;;;1.31;96.09
15674;BME280;7937;48.090;16.212;2022-12-10T05:29:58;96449.06;;;1.32;96.13
15674;BME280;7937;48.090;16.212;2022-12-10T05:33:00;96456.84;;;1.32;96.38
15674;BME280;7937;48.090;16.212;2022-12-10T05:36:03;96456.75;;;1.33;95.95
15674;BME280;7937;48.090;16.212;2022-12-10T05:39:06;96454.16;;;1.33;96.38
15674;BME280;7937;48.090;16.212;2022-12-10T05:42:08;96450.81;;;1.31;96.25
15674;BME280;7937;48.090;16.212;2022-12-10T05:45:11;96452.72;;;1.29;95.76
15674;BME280;7937;48.090;16.212;2022-12-10T05:48:15;96457.91;;;1.29;96.41
15674;BME280;7937;48.090;16.212;2022-12-10T05:51:21;96467.47;;;1.29;96.36
15674;BME280;7937;48.090;16.212;2022-12-10T05:54:23;96472.66;;;1.29;96.63
15674;BME280;7937;48.090;16.212;2022-12-10T05:57:26;96481.09;;;1.32;96.46
15674;BME280;7937;48.090;16.212;2022-12-10T06:00:28;96492.31;;;1.33;96.60
15674;BME280;7937;48.090;16.212;2022-12-10T06:03:30;96498.44;;;1.32;96.82
15674;BME280;7937;48.090;16.212;2022-12-10T06:06:35;96494.06;;;1.32;96.79
15674;BME280;7937;48.090;16.212;2022-12-10T06:09:40;96497.81;;;1.28;95.73
15674;BME280;7937;48.090;16.212;2022-12-10T06:12:42;96504.69;;;1.29;96.25
15674;BME280;7937;48.090;16.212;2022-12-10T06:15:44;96502.09;;;1.29;95.80
15674;BME280;7937;48.090;16.212;2022-12-10T06:18:46;96510.72;;;1.30;96.34
15674;BME280;7937;48.090;16.212;2022-12-10T06:21:49;96507.16;;;1.31;96.00
15674;BME280;7937;48.090;16.212;2022-12-10T06:24:53;96508.22;;;1.28;95.83
15674;BME280;7937;48.090;16.212;2022-12-10T06:27:55;96518.59;;;1.28;96.01
15674;BME280;7937;48.090;16.212;2022-12-10T06:30:58;96529.84;;;1.29;96.05
15674;BME280;7937;48.090;16.212;2022-12-10T06:34:01;96542.00;;;1.28;95.80
15674;BME280;7937;48.090;16.212;2022-12-10T06:37:07;96536.88;;;1.27;95.65
15674;BME280;7937;48.090;16.212;2022-12-10T06:40:09;96523.91;;;1.27;95.11
15674;BME280;7937;48.090;16.212;2022-12-10T06:43:11;96530.84;;;1.26;95.05
15674;BME280;7937;48.090;16.212;2022-12-10T06:46:16;96534.38;;;1.25;95.61
15674;BME280;7937;48.090;16.212;2022-12-10T06:49:19;96537.81;;;1.26;95.40
15674;BME280;7937;48.090;16.212;2022-12-10T06:52:21;96531.78;;;1.25;95.65
15674;BME280;7937;48.090;16.212;2022-12-10T06:55:23;96529.19;;;1.25;95.39
15674;BME280;7937;48.090;16.212;2022-12-10T06:58:29;96518.03;;;1.23;95.21
15674;BME280;7937;48.090;16.212;2022-12-10T07:01:32;96512.84;;;1.23;95.61
15674;BME280;7937;48.090;16.212;2022-12-10T07:04:35;96511.16;;;1.22;95.87
15674;BME280;7937;48.090;16.212;2022-12-10T07:07:37;96516.47;;;1.21;95.85
15674;BME280;7937;48.090;16.212;2022-12-10T07:10:47;96519.19;;;1.19;96.04
15674;BME280;7937;48.090;16.212;2022-12-10T07:13:58;96503.59;;;1.19;95.62
15674;BME280;7937;48.090;16.212;2022-12-10T07:17:00;96502.75;;;1.19;96.14
15674;BME280;7937;48.090;16.212;2022-12-10T07:20:04;96511.56;;;1.16;95.79
15674;BME280;7937;48.090;16.212;2022-12-10T07:23:07;96502.94;;;1.16;96.00
15674;BME280;7937;48.090;16.212;2022-12-10T07:26:10;96505.44;;;1.17;96.05
15674;BME280;7937;48.090;16.212;2022-12-10T07:29:21;96491.53;;;1.18;95.97
15674;BME280;7937;48.090;16.212;2022-12-10T07:32:24;96483.72;;;1.18;96.33
15674;BME280;7937;48.090;16.212;2022-12-10T07:35:26;96484.44;;;1.20;96.14
15674;BME280;7937;48.090;16.212;2022-12-10T07:38:29;96496.50;;;1.21;96.11
15674;BME280;7937;48.090;16.212;2022-12-10T07:41:31;96487.78;;;1.22;95.79
15674;BME280;7937;48.090;16.212;2022-12-10T07:44:34;96494.56;;;1.25;96.25
15674;BME280;7937;48.090;16.212;2022-12-10T07:47:37;96487.69;;;1.24;95.71
15674;BME280;7937;48.090;16.212;2022-12-10T07:50:41;96485.84;;;1.26;95.63
15674;BME280;7937;48.090;16.212;2022-12-10T07:53:45;96485.75;;;1.27;95.58
15674;BME280;7937;48.090;16.212;2022-12-10T07:56:48;96491.56;;;1.31;95.46
15674;BME280;7937;48.090;16.212;2022-12-10T07:59:51;96491.56;;;1.31;95.10
15674;BME280;7937;48.090;16.212;2022-12-10T08:02:56;96487.34;;;1.30;94.76
15674;BME280;7937;48.090;16.212;2022-12-10T08:06:07;96495.75;;;1.33;94.57
15674;BME280;7937;48.090;16.212;2022-12-10T08:09:10;96490.56;;;1.33;94.42
15674;BME280;7937;48.090;16.212;2022-12-10T08:12:14;96483.31;;;1.38;94.86
15674;BME280;7937;48.090;16.212;2022-12-10T08:15:16;96475.41;;;1.40;95.18
15674;BME280;7937;48.090;16.212;2022-12-10T08:18:18;96481.06;;;1.46;95.21
15674;BME280;7937;48.090;16.212;2022-12-10T08:21:22;96473.34;;;1.45;94.72
15674;BME280;7937;48.090;16.212;2022-12-10T08:24:25;96478.56;;;1.45;94.18
15674;BME280;7937;48.090;16.212;2022-12-10T08:27:27;96476.88;;;1.44;94.46
15674;BME280;7937;48.090;16.212;2022-12-10T08:30:30;96475.94;;;1.45;94.70
15674;BME280;7937;48.090;16.212;2022-12-10T08:33:33;96480.31;;;1.44;94.50
15674;BME280;7937;48.090;16.212;2022-12-10T08:36:36;96483.84;;;1.43;94.58
15674;BME280;7937;48.090;16.212;2022-12-10T08:39:39;96486.63;;;1.40;94.59
15674;BME280;7937;48.090;16.212;2022-12-10T08:42:42;96499.75;;;1.39;94.82
15674;BME280;7937;48.090;16.212;2022-12-10T08:45:44;96499.84;;;1.37;94.43
15674;BME280;7937;48.090;16.212;2022-12-10T08:48:46;96497.88;;;1.41;94.49
15674;BME280;7937;48.090;16.212;2022-12-10T08:51:48;96507.41;;;1.40;94.39
15674;BME280;7937;48.090;16.212;2022-12-10T08:54:50;96514.19;;;1.43;94.85
15674;BME280;7937;48.090;16.212;2022-12-10T08:57:52;96521.91;;;1.44;94.26
15674;BME280;7937;48.090;16.212;2022-12-10T09:00:55;96523.28;;;1.50;94.62
15674;BME280;7937;48.090;16.212;2022-12-10T09:03:58;96522.16;;;1.54;94.79
15674;BME280;7937;48.090;16.212;2022-12-10T09:07:00;96515.94;;;1.57;94.55
15674;BME280;7937;48.090;16.212;2022-12-10T09:10:03;96523.94;;;1.54;93.83
15674;BME280;7937;48.090;16.212;2022-12-10T09:13:06;96530.72;;;1.56;93.95
15674;BME280;7937;48.090;16.212;2022-12-10T09:16:08;96530.41;;;1.61;94.23
15674;BME280;7937;48.090;16.212;2022-12-10T09:19:11;96526.59;;;1.66;94.03
15674;BME280;7937;48.090;16.212;2022-12-10T09:22:20;96530.03;;;1.67;93.44
15674;BME280;7937;48.090;16.212;2022-12-10T09:25:22;96511.00;;;1.66;92.85
15674;BME280;7937;48.090;16.212;2022-12-10T09:28:24;96505.28;;;1.74;93.44
15674;BME280;7937;48.090;16.212;2022-12-10T09:31:27;96507.50;;;1.80;93.19
15674;BME280;7937;48.090;16.212;2022-12-10T09:34:31;96505.53;;;1.83;92.60
15674;BME280;7937;48.090;16.212;2022-12-10T09:37:33;96509.41;;;1.91;92.65
15674;BME280;7937;48.090;16.212;2022-12-10T09:40:40;96514.19;;;1.84;91.72
15674;BME280;7937;48.090;16.212;2022-12-10T09:43:48;96513.34;;;1.83;91.91
15674;BME280;7937;48.090;16.212;2022-12-10T09:46:57;96514.09;;;1.85;92.19
15674;BME280;7937;48.090;16.212;2022-12-10T09:53:31;96520.97;;;1.87;92.22
15674;BME280;7937;48.090;16.212;2022-12-10T09:56:36;96525.13;;;1.89;92.30
15674;BME280;7937;48.090;16.212;2022-12-10T09:59:44;96525.84;;;1.91;92.24
15674;BME280;7937;48.090;16.212;2022-12-10T10:02:50;96522.13;;;1.95;92.34
15674;BME280;7937;48.090;16.212;2022-12-10T10:05:54;96513.78;;;1.90;91.51
15674;BME280;7937;48.090;16.212;2022-12-10T10:09:00;96502.25;;;1.94;91.71
15674;BME280;7937;48.090;16.212;2022-12-10T10:12:12;96500.66;;;1.92;91.39
15674;BME280;7937;48.090;16.212;2022-12-10T10:15:20;96497.59;;;1.99;91.88
15674;BME280;7937;48.090;16.212;2022-12-10T10:18:38;96491.88;;;2.07;91.87
15674;BME280;7937;48.090;16.212;2022-12-10T10:21:48;96499.38;;;2.11;91.38
15674;BME280;7937;48.090;16.212;2022-12-10T10:24:51;96481.25;;;2.10;91.16
15674;BME280;7937;48.090;16.212;2022-12-10T10:27:54;96491.78;;;2.08;90.58
15674;BME280;7937;48.090;16.212;2022-12-10T10:30:56;96492.72;;;2.07;90.50
15674;BME280;7937;48.090;16.212;2022-12-10T10:34:03;96496.06;;;2.09;90.79
15674;BME280;7937;48.090;16.212;2022-12-10T10:37:06;96500.91;;;2.01;90.19
15674;BME280;7937;48.090;16.212;2022-12-10T10:40:33;96498.66;;;2.09;90.96
15674;BME280;7937;48.090;16.212;2022-12-10T10:43:42;96493.13;;;2.14;90.50
15674;BME280;7937;48.090;16.212;2022-12-10T10:46:51;96482.84;;;2.25;90.99
15674;BME280;7937;48.090;16.212;2022-12-10T10:49:54;96482.34;;;2.33;90.64
15674;BME280;7937;48.090;16.212;2022-12-10T10:52:56;96477.88;;;2.35;90.35
15674;BME280;7937;48.090;16.212;2022-12-10T10:56:05;96482.44;;;2.31;89.53
15674;BME280;7937;48.090;16.212;2022-12-10T11:02:41;96458.88;;;2.20;89.41
15674;BME280;7937;48.090;16.212;2022-12-10T11:05:47;96458.69;;;2.23;89.67
15674;BME280;7937;48.090;16.212;2022-12-10T11:08:51;96451.31;;;2.17;89.69
15674;BME280;7937;48.090;16.212;2022-12-10T11:12:02;96451.09;;;2.33;90.58
15674;BME280;7937;48.090;16.212;2022-12-10T11:15:28;96445.28;;;2.42;89.58
15674;BME280;7937;48.090;16.212;2022-12-10T11:18:36;96450.56;;;2.40;89.55
15674;BME280;7937;48.090;16.212;2022-12-10T11:21:38;96435.59;;;2.44;89.51
15674;BME280;7937;48.090;16.212;2022-12-10T11:24:40;96425.72;;;2.49;89.29
15674;BME280;7937;48.090;16.212;2022-12-10T11:27:59;96417.16;;;2.47;88.53
15674;BME280;7937;48.090;16.212;2022-12-10T11:41:18;96413.53;;;2.49;89.74
15674;BME280;7937;48.090;16.212;2022-12-10T11:51:02;96406.31;;;2.53;88.70
15674;BME280;7937;48.090;16.212;2022-12-10T11:54:20;96414.56;;;2.47;88.42
15674;BME280;7937;48.090;16.212;2022-12-10T11:57:43;96425.91;;;2.46;88.54
15674;BME280;7937;48.090;16.212;2022-12-10T12:04:32;96413.00;;;2.32;89.12
15674;BME280;7937;48.090;16.212;2022-12-10T12:14:14;96424.84;;;2.10;90.13
15674;BME280;7937;48.090;16.212;2022-12-10T12:17:27;96426.59;;;2.10;90.38
15674;BME280;7937;48.090;16.212;2022-12-10T12:20:36;96429.13;;;2.11;90.38
15674;BME280;7937;48.090;16.212;2022-12-10T12:23:56;96428.19;;;2.12;90.70
15674;BME280;7937;48.090;16.212;2022-12-10T12:30:18;96411.75;;;1.99;91.35
15674;BME280;7937;48.090;16.212;2022-12-10T12:36:34;96407.94;;;1.91;92.27
15674;BME280;7937;48.090;16.212;2022-12-10T12:39:45;96411.63;;;1.88;91.76
15674;BME280;7937;48.090;16.212;2022-12-10T12:43:16;96399.31;;;1.90;91.66
15674;BME280;7937;48.090;16.212;2022-12-10T12:46:33;96408.59;;;1.94;91.36
15674;BME280;7937;48.090;16.212;2022-12-10T12:49:40;96412.66;;;1.98;91.17
15674;BME280;7937;48.090;16.212;2022-12-10T12:52:48;96420.47;;;1.98;91.08
15674;BME280;7937;48.090;16.212;2022-12-10T12:56:03;96416.09;;;1.99;90.93
15674;BME280;7937;48.090;16.212;2022-12-10T13:05:42;96408.50;;;1.96;91.88
15674;BME280;7937;48.090;16.212;2022-12-10T13:15:35;96437.28;;;1.80;92.33
15674;BME280;7937;48.090;16.212;2022-12-10T13:18:39;96448.19;;;1.72;92.42
15674;BME280;7937;48.090;16.212;2022-12-10T13:25:12;96458.47;;;1.74;92.66
15674;BME280;7937;48.090;16.212;2022-12-10T13:31:56;96450.53;;;1.63;92.64
15674;BME280;7937;48.090;16.212;2022-12-10T13:38:24;96445.44;;;1.61;93.33
15674;BME280;7937;48.090;16.212;2022-12-10T13:41:27;96450.63;;;1.61;93.57
15674;BME280;7937;48.090;16.212;2022-12-10T13:44:50;96451.13;;;1.54;93.26
15674;BME280;7937;48.090;16.212;2022-12-10T14:12:18;96451.63;;;1.46;95.06
15674;BME280;7937;48.090;16.212;2022-12-10T14:15:24;96450.06;;;1.43;94.97
15674;BME280;7937;48.090;16.212;2022-12-10T14:18:27;96450.06;;;1.43;95.20
15674;BME280;7937;48.090;16.212;2022-12-10T14:21:35;96446.81;;;1.40;95.32
15674;BME280;7937;48.090;16.212;2022-12-10T14:24:40;96444.50;;;1.35;94.92
15674;BME280;7937;48.090;16.212;2022-12-10T14:27:52;96453.06;;;1.37;95.41
15674;BME280;7937;48.090;16.212;2022-12-10T14:30:54;96450.25;;;1.40;95.37
15674;BME280;7937;48.090;16.212;2022-12-10T14:34:03;96449.97;;;1.45;95.64
15674;BME280;7937;48.090;16.212;2022-12-10T14:37:10;96446.44;;;1.46;95.46
15674;BME280;7937;48.090;16.212;2022-12-10T14:40:22;96444.66;;;1.46;95.65
15674;BME280;7937;48.090;16.212;2022-12-10T14:43:32;96442.91;;;1.47;95.72
15674;BME280;7937;48.090;16.212;2022-12-10T14:46:37;96444.56;;;1.48;95.21
15674;BME280;7937;48.090;16.212;2022-12-10T14:49:42;96451.81;;;1.43;95.17
15674;BME280;7937;48.090;16.212;2022-12-10T14:52:50;96451.91;;;1.41;94.80
15674;BME280;7937;48.090;16.212;2022-12-10T14:55:56;96443.28;;;1.41;95.14
15674;BME280;7937;48.090;16.212;2022-12-10T14:59:19;96444.03;;;1.43;94.82
15674;BME280;7937;48.090;16.212;2022-12-10T15:02:31;96449.22;;;1.43;94.73
15674;BME280;7937;48.090;16.212;2022-12-10T15:05:36;96446.72;;;1.41;95.07
15674;BME280;7937;48.090;16.212;2022-12-10T15:08:41;96445.34;;;1.36;95.44
15674;BME280;7937;48.090;16.212;2022-12-10T15:11:44;96444.59;;;1.34;94.43
15674;BME280;7937;48.090;16.212;2022-12-10T15:14:47;96445.53;;;1.33;94.88
15674;BME280;7937;48.090;16.212;2022-12-10T15:17:59;96452.59;;;1.31;95.08
15674;BME280;7937;48.090;16.212;2022-12-10T15:24:13;96440.00;;;1.25;95.37
15674;BME280;7937;48.090;16.212;2022-12-10T15:27:22;96433.03;;;1.25;95.72
15674;BME280;7937;48.090;16.212;2022-12-10T15:30:39;96440.09;;;1.23;96.01
15674;BME280;7937;48.090;16.212;2022-12-10T15:34:06;96440.19;;;1.22;96.16
15674;BME280;7937;48.090;16.212;2022-12-10T15:37:39;96440.19;;;1.22;96.35
15674;BME280;7937;48.090;16.212;2022-12-10T15:40:43;96444.75;;;1.18;96.33
15674;BME280;7937;48.090;16.212;2022-12-10T15:44:03;96430.38;;;1.13;95.78
15674;BME280;7937;48.090;16.212;2022-12-10T15:47:23;96444.28;;;1.11;95.85
15674;BME280;7937;48.090;16.212;2022-12-10T15:50:26;96442.72;;;1.09;95.95
15674;BME280;7937;48.090;16.212;2022-12-10T15:53:37;96446.34;;;1.06;96.12
15674;BME280;7937;48.090;16.212;2022-12-10T15:56:42;96442.91;;;1.06;96.38
15674;BME280;7937;48.090;16.212;2022-12-10T15:59:47;96435.41;;;1.01;96.62
15674;BME280;7937;48.090;16.212;2022-12-10T16:05:58;96439.41;;;0.93;96.82
15674;BME280;7937;48.090;16.212;2022-12-10T16:09:01;96437.00;;;0.90;97.47
15674;BME280;7937;48.090;16.212;2022-12-10T16:12:04;96436.06;;;0.91;97.25
15674;BME280;7937;48.090;16.212;2022-12-10T16:15:19;96433.38;;;0.92;97.64
15674;BME280;7937;48.090;16.212;2022-12-10T16:18:23;96435.03;;;0.93;97.97
15674;BME280;7937;48.090;16.212;2022-12-10T16:21:32;96434.88;;;0.96;97.91
15674;BME280;7937;48.090;16.212;2022-12-10T16:24:36;96431.34;;;0.97;98.19
15674;BME280;7937;48.090;16.212;2022-12-10T16:27:46;96435.59;;;0.98;98.11
15674;BME280;7937;48.090;16.212;2022-12-10T16:30:54;96448.59;;;0.98;98.14
15674;BME280;7937;48.090;16.212;2022-12-10T16:33:57;96447.53;;;1.01;98.10
15674;BME280;7937;48.090;16.212;2022-12-10T16:37:00;96446.72;;;1.00;98.25
15674;BME280;7937;48.090;16.212;2022-12-10T16:40:03;96450.06;;;1.02;98.26
15674;BME280;7937;48.090;16.212;2022-12-10T16:43:15;96448.38;;;1.01;99.10
15674;BME280;7937;48.090;16.212;2022-12-10T16:46:22;96453.56;;;1.01;99.28
15674;BME280;7937;48.090;16.212;2022-12-10T16:49:26;96452.75;;;1.01;99.42
15674;BME280;7937;48.090;16.212;2022-12-10T16:52:29;96455.56;;;0.98;99.20
15674;BME280;7937;48.090;16.212;2022-12-10T16:55:33;96458.25;;;0.96;99.07
15674;BME280;7937;48.090;16.212;2022-12-10T16:58:36;96453.31;;;0.92;98.88
15674;BME280;7937;48.090;16.212;2022-12-10T17:01:38;96444.06;;;0.88;99.40
15674;BME280;7937;48.090;16.212;2022-12-10T17:04:41;96445.16;;;0.84;99.18
15674;BME280;7937;48.090;16.212;2022-12-10T17:07:43;96447.03;;;0.82;99.87
15674;BME280;7937;48.090;16.212;2022-12-10T17:10:47;96447.84;;;0.82;100.00
15674;BME280;7937;48.090;16.212;2022-12-10T17:14:29;96444.41;;;0.82;99.71
15674;BME280;7937;48.090;16.212;2022-12-10T17:17:32;96447.09;;;0.80;100.00
15674;BME280;7937;48.090;16.212;2022-12-10T17:20:34;96438.50;;;0.80;100.00
15674;BME280;7937;48.090;16.212;2022-12-10T17:23:36;96443.69;;;0.80;100.00
15674;BME280;7937;48.090;16.212;2022-12-10T17:26:41;96440.16;;;0.81;100.00
15674;BME280;7937;48.090;16.212;2022-12-10T17:29:47;96449.81;;;0.79;100.00
15674;BME280;7937;48.090;16.212;2022-12-10T17:32:55;96446.31;;;0.80;100.00
15674;BME280;7937;48.090;16.212;2022-12-10T17:35:58;96439.53;;;0.77;100.00
15674;BME280;7937;48.090;16.212;2022-12-10T17:39:00;96446.38;;;0.78;100.00
15674;BME280;7937;48.090;16.212;2022-12-10T17:42:03;96453.88;;;0.83;100.00
15674;BME280;7937;48.090;16.212;2022-12-10T17:45:07;96461.75;;;0.81;100.00
15674;BME280;7937;48.090;16.212;2022-12-10T17:48:18;96455.72;;;0.81;100.00
15674;BME280;7937;48.090;16.212;2022-12-10T17:51:21;96455.84;;;0.79;100.00
15674;BME280;7937;48.090;16.212;2022-12-10T17:54:25;96460.22;;;0.79;100.00
15674;BME280;7937;48.090;16.212;2022-12-10T17:57:28;96456.78;;;0.78;100.00
15674;BME280;7937;48.090;16.212;2022-12-10T18:00:32;96457.63;;;0.79;100.00
15674;BME280;7937;48.090;16.212;2022-12-10T18:03:38;96452.50;;;0.77;100.00
15674;BME280;7937;48.090;16.212;2022-12-10T18:06:41;96448.16;;;0.78;100.00
15674;BME280;7937;48.090;16.212;2022-12-10T18:09:43;96453.34;;;0.78;100.00
15674;BME280;7937;48.090;16.212;2022-12-10T18:12:46;96449.81;;;0.79;100.00
15674;BME280;7937;48.090;16.212;2022-12-10T18:15:49;96453.13;;;0.81;100.00
15674;BME280;7937;48.090;16.212;2022-12-10T18:18:53;96448.06;;;0.79;100.00
15674;BME280;7937;48.090;16.212;2022-12-10T18:21:56;96450.53;;;0.81;100.00
15674;BME280;7937;48.090;16.212;2022-12-10T18:24:59;96444.72;;;0.77;100.00